Time;durP1;ratioP1;P1;durP2;ratioP2;P2;SDS_P1;SDS_P2;PMS_P1;PMS_P2;Temp;Humidity;BMP_temperature;BMP_pressure;BME280_temperature;BME280_humidity;BME280_pressure;Samples;Min_cycle;Max_cycle;Signal;HPM_P1;HPM_P2
2023/04/13 00:03:26;;;;;;;13.27;7.32;;;;;;;8.34;87.40;99917.72;6104113;22;20023;-95
2023/04/13 00:14:51;;;;;;;11.13;7.30;;;;;;;8.53;88.03;99970.19;6240993;22;20015;-96
2023/04/13 00:25:57;;;;;;;12.60;7.85;;;;;;;8.49;88.29;99984.91;6293731;22;20018;-95
2023/04/13 00:40:30;;;;;;;14.85;9.35;;;;;;;8.27;89.98;99966.75;6261609;22;20004;-94
2023/04/13 00:46:29;;;;;;;15.45;9.93;;;;;;;8.24;91.26;100005.38;6292650;22;20015;-96
2023/04/13 00:49:52;;;;;;;16.33;10.13;;;;;;;8.02;91.53;99963.97;6282049;22;20008;-96
2023/04/13 00:55:54;;;;;;;18.35;11.02;;;;;;;8.02;91.83;99991.56;6273670;23;19989;-95
2023/04/13 01:19:50;;;;;;;18.52;9.90;;;;;;;7.83;91.55;99987.31;6245789;22;20023;-96
2023/04/13 01:26:44;;;;;;;17.52;10.18;;;;;;;7.88;92.89;100042.19;6240950;23;20011;-95
2023/04/13 01:29:22;;;;;;;17.10;10.23;;;;;;;7.79;93.05;100036.78;6240521;23;20005;-95
2023/04/13 01:32:38;;;;;;;15.43;10.03;;;;;;;7.51;93.25;99989.78;6238856;23;20032;-96
2023/04/13 01:35:25;;;;;;;16.00;9.70;;;;;;;7.56;93.33;100003.53;6238871;23;20000;-95
2023/04/13 01:38:45;;;;;;;14.77;8.98;;;;;;;7.55;93.39;100009.88;6229408;23;20020;-95
2023/04/13 01:41:56;;;;;;;14.63;8.80;;;;;;;7.62;93.44;100026.97;6226577;23;20012;-94
2023/04/13 01:44:44;;;;;;;15.30;8.90;;;;;;;7.70;93.86;100032.41;6172477;23;20024;-95
2023/04/13 01:47:30;;;;;;;14.88;8.80;;;;;;;7.78;93.75;100043.13;6221025;23;20010;-95
2023/04/13 01:50:24;;;;;;;12.82;8.50;;;;;;;7.88;93.49;100052.91;6222317;23;20008;-95
2023/04/13 01:53:39;;;;;;;14.02;8.60;;;;;;;7.68;93.22;100018.34;6217650;23;20009;-94
2023/04/13 01:56:32;;;;;;;13.57;9.10;;;;;;;7.70;93.09;100026.19;6200838;23;20069;-95
2023/04/13 01:59:03;;;;;;;13.18;8.48;;;;;;;7.67;93.40;100038.06;6215797;23;20072;-95
2023/04/13 02:01:58;;;;;;;14.88;8.85;;;;;;;7.79;93.80;100066.22;6213909;23;20012;-94
2023/04/13 02:04:43;;;;;;;15.82;8.50;;;;;;;7.65;94.06;100053.41;6223779;23;20016;-95
2023/04/13 02:07:40;;;;;;;13.07;8.35;;;;;;;7.56;94.20;100043.66;6213158;23;20333;-95
2023/04/13 02:13:35;;;;;;;12.57;8.40;;;;;;;7.56;95.75;100060.56;6263212;22;20035;-95
2023/04/13 02:16:17;;;;;;;14.15;8.70;;;;;;;7.50;95.94;100060.34;6214983;23;20101;-95
2023/04/13 02:19:04;;;;;;;14.70;8.95;;;;;;;7.73;97.04;100093.63;6268371;22;20008;-92
2023/04/13 02:21:40;;;;;;;16.08;9.00;;;;;;;7.65;96.15;100074.81;6268078;22;20011;-92
2023/04/13 02:24:17;;;;;;;14.00;8.52;;;;;;;7.73;95.26;100082.91;6267031;22;20016;-95
2023/04/13 02:27:04;;;;;;;14.15;8.63;;;;;;;7.48;95.15;100059.66;6240976;23;19996;-91
2023/04/13 02:29:31;;;;;;;13.60;8.35;;;;;;;7.70;95.34;100079.69;6240468;22;20133;-93
2023/04/13 02:32:12;;;;;;;13.65;8.77;;;;;;;7.52;95.88;100061.03;6268941;22;20008;-93
2023/04/13 02:34:41;;;;;;;15.60;9.25;;;;;;;7.75;94.85;100090.78;6269583;22;19996;-95
2023/04/13 02:37:15;;;;;;;13.20;8.65;;;;;;;7.65;94.27;100080.16;6263594;22;20000;-91
2023/04/13 02:39:46;;;;;;;14.77;8.88;;;;;;;7.73;94.29;100088.28;6234231;22;20020;-93
2023/04/13 02:42:16;;;;;;;14.05;8.93;;;;;;;7.78;93.98;100085.97;6240929;23;19992;-93
2023/04/13 02:44:50;;;;;;;15.10;9.13;;;;;;;7.77;92.76;100086.97;6205186;23;20012;-93
2023/04/13 02:47:25;;;;;;;15.07;9.05;;;;;;;7.70;92.46;100077.03;6238530;23;20008;-94
2023/04/13 02:50:06;;;;;;;14.82;8.48;;;;;;;7.80;91.88;100085.81;6229941;23;20091;-91
2023/04/13 02:52:42;;;;;;;13.48;8.82;;;;;;;7.58;92.27;100058.53;6253577;23;20004;-91
2023/04/13 02:55:27;;;;;;;14.15;9.18;;;;;;;7.67;91.58;100062.13;6269290;22;20090;-94
2023/04/13 02:57:56;;;;;;;12.52;8.65;;;;;;;7.68;91.03;100054.94;6189376;23;20005;-93
2023/04/13 03:00:24;;;;;;;13.30;7.88;;;;;;;7.73;91.42;100066.88;6218716;23;20397;-94
2023/04/13 03:02:51;;;;;;;13.45;8.30;;;;;;;7.74;90.78;100060.50;6192881;23;20135;-94
2023/04/13 03:05:18;;;;;;;12.05;8.18;;;;;;;7.85;90.87;100080.81;6192797;23;20429;-91
2023/04/13 03:07:51;;;;;;;12.23;8.05;;;;;;;7.85;90.38;100074.63;6197855;23;20008;-91
2023/04/13 03:10:21;;;;;;;12.77;8.15;;;;;;;7.81;90.21;100066.06;6218704;23;20016;-92
2023/04/13 03:13:16;;;;;;;13.43;7.88;;;;;;;7.81;90.33;100080.28;6194597;23;20020;-94
2023/04/13 03:15:46;;;;;;;12.60;8.25;;;;;;;7.76;89.97;100071.91;6201587;23;20008;-92
2023/04/13 03:18:37;;;;;;;11.02;7.35;;;;;;;7.81;89.70;100074.94;6241776;23;20000;-93
2023/04/13 03:21:17;;;;;;;10.25;6.72;;;;;;;7.76;89.68;100061.19;6226020;23;20016;-91
2023/04/13 03:24:04;;;;;;;10.45;6.95;;;;;;;8.00;89.24;100083.75;6220585;23;20009;-92
2023/04/13 03:26:43;;;;;;;10.40;6.85;;;;;;;7.90;89.07;100067.81;6206301;23;20012;-92
2023/04/13 03:29:18;;;;;;;9.02;6.20;;;;;;;7.92;88.23;100056.94;6259213;23;20004;-92
2023/04/13 03:32:11;;;;;;;11.75;6.22;;;;;;;8.00;88.42;100070.38;6159846;23;20012;-93
2023/04/13 03:34:46;;;;;;;9.73;6.50;;;;;;;8.01;88.02;100074.75;6218675;23;20008;-92
2023/04/13 03:37:17;;;;;;;11.52;6.97;;;;;;;8.17;87.94;100100.75;6214958;23;19996;-93
2023/04/13 03:39:45;;;;;;;10.93;7.40;;;;;;;8.05;88.10;100092.13;6267211;22;20000;-92
2023/04/13 03:42:16;;;;;;;12.85;8.80;;;;;;;8.00;87.90;100089.09;6239792;22;19996;-94
2023/04/13 03:45:01;;;;;;;12.45;8.63;;;;;;;7.96;89.02;100130.56;6240987;23;20051;-92
2023/04/13 03:47:44;;;;;;;13.52;8.98;;;;;;;8.00;89.66;100138.13;6254375;23;20015;-93
2023/04/13 03:50:11;;;;;;;18.55;11.32;;;;;;;7.93;89.69;100141.59;6230967;23;20008;-91
2023/04/13 03:53:06;;;;;;;18.27;11.50;;;;;;;8.05;89.75;100169.78;6244638;23;20016;-94
2023/04/13 03:55:41;;;;;;;19.23;11.20;;;;;;;7.77;89.68;100124.44;6221402;23;20004;-91
2023/04/13 03:58:16;;;;;;;18.63;10.80;;;;;;;7.73;90.03;100136.44;6176267;23;20461;-95
2023/04/13 04:01:09;;;;;;;17.15;9.43;;;;;;;7.98;89.72;100177.63;6234053;23;20012;-93
2023/04/13 04:03:39;;;;;;;15.70;9.88;;;;;;;7.75;89.17;100136.25;6223718;22;20059;-93
2023/04/13 04:06:10;;;;;;;;;;;;;;;7.97;89.36;100185.78;6197238;23;20087;-92
2023/04/13 04:08:38;;;;;;;14.65;9.25;;;;;;;7.73;89.76;100151.66;6223697;23;19907;-93
2023/04/13 04:11:16;;;;;;;14.00;9.00;;;;;;;7.81;89.64;100165.91;6239107;22;20006;-94
2023/04/13 04:14:02;;;;;;;16.27;8.82;;;;;;;7.77;89.14;100164.56;6235614;23;20020;-92
2023/04/13 04:16:37;;;;;;;16.73;9.45;;;;;;;7.62;89.71;100163.44;6198683;23;20093;-93
2023/04/13 04:19:42;;;;;;;14.65;9.93;;;;;;;7.93;89.24;100193.28;6203400;23;20012;-95
2023/04/13 04:22:52;;;;;;;16.15;10.35;;;;;;;7.74;88.96;100158.69;6263064;23;19996;-94
2023/04/13 04:25:44;;;;;;;15.40;10.77;;;;;;;7.88;89.12;100184.88;6238267;22;19996;-93
2023/04/13 04:28:38;;;;;;;20.60;10.20;;;;;;;7.82;88.73;100191.72;6268483;22;20000;-94
2023/04/13 04:31:09;;;;;;;21.23;10.20;;;;;;;7.71;88.54;100173.22;6175769;23;20024;-94
2023/04/13 04:33:38;;;;;;;18.23;10.30;;;;;;;7.68;87.99;100164.63;6163654;23;20009;-94
2023/04/13 04:36:15;;;;;;;17.15;9.52;;;;;;;7.96;86.98;100210.88;6136911;23;20039;-93
2023/04/13 04:38:48;;;;;;;13.68;9.43;;;;;;;8.10;87.23;100228.22;6185091;23;20009;-95
2023/04/13 04:41:47;;;;;;;15.15;9.95;;;;;;;8.07;85.74;100224.00;6162107;23;20051;-96
2023/04/13 04:47:58;;;;;;;19.80;11.95;;;;;;;7.96;83.47;100205.50;6202969;23;20041;-93
2023/04/13 04:51:23;;;;;;;18.48;11.23;;;;;;;7.92;82.96;100215.72;6207781;23;20021;-94
2023/04/13 04:54:20;;;;;;;19.45;10.93;;;;;;;7.97;81.96;100185.78;6207784;23;20009;-94
2023/04/13 04:57:45;;;;;;;18.63;9.65;;;;;;;8.28;80.43;100231.69;6208195;23;19997;-94
2023/04/13 05:00:29;;;;;;;17.23;9.68;;;;;;;8.09;78.95;100202.44;6182555;23;20009;-95
2023/04/13 05:03:22;;;;;;;15.05;9.80;;;;;;;8.27;78.36;100221.16;6230991;22;20015;-93
2023/04/13 05:05:59;;;;;;;15.82;8.90;;;;;;;8.28;78.09;100202.25;6235800;23;20005;-95
2023/04/13 05:08:28;;;;;;;17.67;9.05;;;;;;;8.53;78.09;100224.72;6231961;23;20055;-93
2023/04/13 05:10:54;;;;;;;15.20;8.15;;;;;;;10.02;71.85;100221.44;6235291;23;20012;-92
2023/04/13 05:13:43;;;;;;;19.75;7.68;;;;;;;12.34;63.10;100206.59;6226243;23;20016;-92
2023/04/13 05:16:13;;;;;;;18.38;7.10;;;;;;;14.51;55.21;100226.53;6217896;23;20017;-90
2023/04/13 05:22:28;;;;;;;11.77;6.70;;;;;;;18.21;45.73;100226.09;6137643;22;20127;-93
2023/04/13 05:25:13;;;;;;;13.10;7.00;;;;;;;17.50;45.53;100204.34;6221250;23;20023;-95
2023/04/13 05:27:48;;;;;;;16.30;6.70;;;;;;;17.48;44.17;100208.34;6252348;23;20091;-94
2023/04/13 05:30:50;;;;;;;9.23;6.50;;;;;;;15.83;47.04;100201.13;6233786;23;20011;-94
2023/04/13 05:33:34;;;;;;;14.10;5.82;;;;;;;15.17;49.99;100233.38;6248437;23;20008;-93
2023/04/13 05:36:21;;;;;;;16.75;5.88;;;;;;;14.09;51.87;100247.22;6228757;23;20018;-93
2023/04/13 05:39:41;;;;;;;8.52;4.57;;;;;;;12.91;53.82;100220.50;6165641;23;20004;-95
2023/04/13 05:47:55;;;;;;;16.27;6.63;;;;;;;12.29;57.65;100200.94;6246566;22;20100;-96
2023/04/13 05:59:11;;;;;;;11.73;6.45;;;;;;;12.49;58.41;100211.19;6274563;22;20047;-93
2023/04/13 06:01:42;;;;;;;17.67;6.53;;;;;;;12.63;58.57;100223.84;6248932;22;20012;-94
2023/04/13 06:04:15;;;;;;;26.33;6.68;;;;;;;12.68;58.92;100218.72;6228797;22;20004;-92
2023/04/13 06:06:46;;;;;;;17.13;5.70;;;;;;;12.28;59.21;100198.41;6254696;22;20023;-94
2023/04/13 06:09:18;;;;;;;8.93;4.85;;;;;;;12.29;59.07;100200.94;6287910;22;20003;-96
2023/04/13 06:12:01;;;;;;;11.63;5.03;;;;;;;11.89;59.12;100194.84;6208081;22;20023;-94
2023/04/13 06:14:33;;;;;;;8.07;4.25;;;;;;;11.88;58.95;100203.97;6251845;22;20007;-95
2023/04/13 06:17:11;;;;;;;8.80;4.10;;;;;;;12.14;58.05;100235.91;6282343;22;20030;-94
2023/04/13 06:19:49;;;;;;;13.55;5.20;;;;;;;13.14;55.87;100196.94;6284927;22;20014;-90
2023/04/13 06:26:03;;;;;;;15.20;8.77;;;;;;;15.08;50.72;100231.91;6287532;22;20007;-93
2023/04/13 06:29:13;;;;;;;20.65;10.85;;;;;;;15.40;49.76;100198.72;6156311;23;20011;-92
2023/04/13 06:35:36;;;;;;;22.58;10.93;;;;;;;16.65;47.27;100236.19;6220681;22;20031;-95
2023/04/13 06:38:20;;;;;;;20.10;9.98;;;;;;;16.91;45.51;100207.34;6254299;23;20019;-93
2023/04/13 06:41:19;;;;;;;23.15;9.95;;;;;;;17.46;43.85;100211.25;6257077;22;20027;-96
2023/04/13 06:44:23;;;;;;;20.10;8.63;;;;;;;18.15;42.74;100241.41;6206702;23;20047;-95
2023/04/13 06:47:20;;;;;;;;;;;;;;;18.76;41.35;100237.97;6264016;22;20008;-95
2023/04/13 06:50:14;;;;;;;11.48;7.10;;;;;;;18.14;40.42;100237.88;6236525;23;19925;-95
2023/04/13 07:38:03;;;;;;;19.35;6.32;;;;;;;18.76;39.50;100243.41;6154392;23;20020;-95
2023/04/13 07:40:48;;;;;;;16.95;6.10;;;;;;;18.31;40.28;100229.97;6173127;23;20036;-92
2023/04/13 07:43:25;;;;;;;12.65;5.95;;;;;;;18.79;39.46;100247.56;6172101;23;20020;-93
2023/04/13 07:46:11;;;;;;;14.15;6.00;;;;;;;19.44;38.24;100233.41;6159941;23;20037;-95
2023/04/13 07:49:22;;;;;;;14.20;6.30;;;;;;;20.07;37.66;100226.66;6105585;23;20006;-94
2023/04/13 07:52:28;;;;;;;12.88;5.90;;;;;;;20.76;36.00;100232.44;6117946;23;20014;-95
2023/04/13 07:58:24;;;;;;;16.55;6.57;;;;;;;22.73;32.83;100248.50;6166412;23;20005;-90
2023/04/13 08:00:59;;;;;;;10.32;5.53;;;;;;;23.16;31.39;100233.22;6175580;22;20060;-93
2023/04/13 08:03:26;;;;;;;10.05;5.78;;;;;;;23.95;29.98;100248.41;6287747;22;19999;-90
2023/04/13 08:05:55;;;;;;;13.35;6.18;;;;;;;24.41;29.67;100228.75;6294137;22;19907;-92
2023/04/13 08:08:25;;;;;;;26.42;8.43;;;;;;;25.23;29.76;100208.09;6277981;22;20004;-92
2023/04/13 08:10:56;;;;;;;23.50;6.88;;;;;;;25.40;29.38;100229.91;6280963;22;20011;-92
2023/04/13 08:13:46;;;;;;;13.63;8.20;;;;;;;26.10;27.65;100226.75;6290433;22;20020;-92
2023/04/13 08:16:39;;;;;;;11.68;6.93;;;;;;;26.58;27.26;100221.81;6294970;22;19996;-94
2023/04/13 08:19:44;;;;;;;22.17;6.65;;;;;;;27.45;25.24;100210.50;6259424;22;20095;-94
2023/04/13 08:22:31;;;;;;;13.60;5.80;;;;;;;27.84;24.05;100201.47;6155148;23;20013;-94
2023/04/13 08:25:50;;;;;;;11.48;5.57;;;;;;;28.57;22.69;100230.19;6230538;22;20035;-96
2023/04/13 08:28:19;;;;;;;13.40;5.55;;;;;;;28.21;23.30;100230.44;6255311;22;20016;-96
2023/04/13 08:31:31;;;;;;;12.85;5.60;;;;;;;29.70;22.34;100224.16;6211725;23;20012;-95
2023/04/13 08:33:58;;;;;;;10.48;5.22;;;;;;;30.98;20.30;100227.56;6228116;23;20406;-96
2023/04/13 08:36:55;;;;;;;12.07;5.68;;;;;;;31.64;19.46;100224.53;6227127;23;20020;-92
2023/04/13 08:39:47;;;;;;;13.75;5.60;;;;;;;32.80;18.65;100199.66;6265293;22;20031;-92
2023/04/13 08:42:37;;;;;;;11.32;5.00;;;;;;;32.78;17.72;100200.00;6210214;23;20008;-94
2023/04/13 08:45:32;;;;;;;11.15;4.80;;;;;;;32.97;17.42;100180.25;6239784;23;20020;-91
2023/04/13 08:48:34;;;;;;;9.13;4.70;;;;;;;33.50;16.57;100197.09;6222193;23;20008;-96
2023/04/13 08:51:35;;;;;;;11.82;4.93;;;;;;;34.08;17.21;100204.16;6214009;22;20020;-90
2023/04/13 08:54:04;;;;;;;21.55;5.13;;;;;;;34.50;18.08;100184.88;6223496;23;20020;-92
2023/04/13 08:56:34;;;;;;;7.68;3.55;;;;;;;33.66;15.64;100184.34;6197071;23;20004;-95
2023/04/13 08:59:24;;;;;;;9.82;3.90;;;;;;;34.31;15.96;100198.41;6165585;23;20019;-90
2023/04/13 09:01:54;;;;;;;11.40;5.50;;;;;;;33.92;16.46;100177.94;6230953;22;20008;-89
2023/04/13 09:04:22;;;;;;;7.18;3.97;;;;;;;33.50;15.83;100177.59;6187374;23;20092;-91
2023/04/13 09:06:58;;;;;;;8.45;4.35;;;;;;;32.87;16.91;100161.03;6226505;23;20011;-90
2023/04/13 09:09:28;;;;;;;10.98;4.80;;;;;;;32.37;17.02;100189.13;6215498;23;20013;-91
2023/04/13 09:12:22;;;;;;;11.20;5.95;;;;;;;33.90;17.30;100175.47;6199875;23;20087;-95
2023/04/13 09:15:25;;;;;;;9.60;4.80;;;;;;;34.26;16.19;100166.75;6239265;22;20024;-94
2023/04/13 09:18:44;;;;;;;6.10;4.80;;;;;;;34.15;15.26;100195.31;6190201;22;20013;31
2023/04/13 09:21:16;;;;;;;6.55;2.90;;;;;;;35.25;15.30;100176.84;6183583;23;20076;-92
2023/04/13 09:23:52;;;;;;;6.68;3.20;;;;;;;36.24;13.86;100174.56;6142577;23;20001;-95
2023/04/13 09:26:21;;;;;;;8.05;3.30;;;;;;;35.00;14.94;100142.31;6165852;23;20013;-94
2023/04/13 09:29:04;;;;;;;11.85;3.85;;;;;;;35.44;14.66;100173.59;6170268;23;20489;-93
2023/04/13 09:31:36;;;;;;;7.82;3.20;;;;;;;35.17;14.96;100169.34;6193156;23;20012;-94
2023/04/13 09:34:49;;;;;;;8.45;3.17;;;;;;;37.31;13.45;100166.13;6171673;23;20036;-94
2023/04/13 09:37:31;;;;;;;6.30;3.25;;;;;;;36.43;13.60;100141.25;6190998;23;20036;-93
2023/04/13 09:40:12;;;;;;;6.18;2.58;;;;;;;37.17;13.22;100172.91;6172175;23;20075;-92
2023/04/13 09:43:00;;;;;;;13.82;3.10;;;;;;;37.88;12.77;100162.22;6200811;23;20040;-93
2023/04/13 09:45:47;;;;;;;7.85;2.33;;;;;;;37.98;12.60;100170.13;6185293;23;20012;-91
2023/04/13 09:48:21;;;;;;;3.85;2.17;;;;;;;36.45;12.49;100155.72;6193427;23;20005;-92
2023/04/13 09:51:10;;;;;;;5.75;2.20;;;;;;;38.12;12.13;100166.94;6154834;23;20430;-92
2023/04/13 09:53:48;;;;;;;5.20;2.17;;;;;;;37.81;11.67;100159.22;6172789;23;20388;-93
2023/04/13 09:56:26;;;;;;;4.07;1.58;;;;;;;37.64;11.62;100181.97;6166434;23;20153;-92
2023/04/13 09:59:02;;;;;;;3.08;1.90;;;;;;;37.32;13.23;100164.94;6195455;23;20067;-91
2023/04/13 10:02:13;;;;;;;4.28;2.17;;;;;;;35.82;14.75;100189.41;6177850;23;20001;-91
2023/04/13 10:05:05;;;;;;;4.68;2.15;;;;;;;33.75;16.92;100168.44;6175846;23;20067;-92
2023/04/13 10:07:35;;;;;;;5.10;2.20;;;;;;;35.60;15.80;100195.34;6118836;23;20013;-93
2023/04/13 10:10:07;;;;;;;2.97;2.03;;;;;;;33.72;17.30;100176.66;6164612;23;20080;-94
2023/04/13 10:12:41;;;;;;;3.88;2.00;;;;;;;33.21;17.77;100179.84;6188437;23;20009;-93
2023/04/13 10:16:08;;;;;;;3.00;2.10;;;;;;;32.53;18.68;100203.47;6185834;23;20040;-93
2023/04/13 10:19:33;;;;;;;5.35;2.13;;;;;;;32.64;17.99;100201.22;6210771;23;20033;-95
2023/04/13 10:22:22;;;;;;;5.45;1.80;;;;;;;34.77;16.35;100206.00;6178680;23;20329;-94
2023/04/13 10:25:04;;;;;;;3.75;2.08;;;;;;;34.72;15.51;100208.97;6172412;23;20302;-95
2023/04/13 10:27:30;;;;;;;2.95;1.90;;;;;;;33.60;16.25;100203.19;6189621;23;20048;-94
2023/04/13 10:30:20;;;;;;;4.80;2.17;;;;;;;32.86;17.49;100183.66;6169534;23;20028;-93
2023/04/13 10:33:06;;;;;;;4.43;2.40;;;;;;;33.64;16.73;100208.94;6214342;23;20523;-93
2023/04/13 10:35:36;;;;;;;4.78;2.38;;;;;;;32.22;17.66;100211.75;6213168;23;20318;-91
2023/04/13 10:38:09;;;;;;;3.33;1.80;;;;;;;30.87;18.53;100176.97;6214668;23;20076;-95
2023/04/13 10:40:45;;;;;;;3.75;2.30;;;;;;;29.37;20.67;100198.28;6220361;23;20032;-90
2023/04/13 10:43:41;;;;;;;4.60;2.00;;;;;;;28.62;21.85;100200.53;6169582;23;20027;-91
2023/04/13 10:46:32;;;;;;;3.58;2.20;;;;;;;26.49;24.24;100196.72;6211403;23;20012;-94
2023/04/13 10:49:06;;;;;;;3.92;1.90;;;;;;;24.45;26.17;100202.41;6228803;23;20005;-96
2023/04/13 10:51:50;;;;;;;8.43;2.45;;;;;;;23.34;28.47;100193.69;6241962;23;20015;-91
2023/04/13 10:54:34;;;;;;;4.97;1.80;;;;;;;22.34;29.37;100190.13;6196227;23;20015;-95
2023/04/13 10:57:17;;;;;;;4.55;2.90;;;;;;;22.40;30.06;100210.19;6220033;23;20147;-92
2023/04/13 10:59:52;;;;;;;6.38;2.50;;;;;;;21.10;32.57;100201.75;6167658;23;20031;-94
2023/04/13 11:02:20;;;;;;;5.65;2.55;;;;;;;19.63;34.42;100170.66;6189118;23;20413;-92
2023/04/13 11:04:51;;;;;;;5.35;2.50;;;;;;;19.34;35.05;100187.63;6219123;23;20008;-94
2023/04/13 11:08:15;;;;;;;6.90;2.28;;;;;;;19.06;36.35;100209.13;6223005;23;20031;-92
2023/04/13 11:10:55;;;;;;;11.13;2.95;;;;;;;19.57;35.94;100186.91;6234815;23;20020;-90
2023/04/13 11:13:27;;;;;;;4.80;2.28;;;;;;;18.64;36.81;100176.28;6234097;23;20035;-91
2023/04/13 11:16:04;;;;;;;;;;;;;;;19.28;35.63;100198.63;6228739;23;20004;-91
2023/04/13 11:18:32;;;;;;;5.55;2.00;;;;;;;20.65;34.40;100195.06;6227498;23;19943;-88
2023/04/13 11:21:03;;;;;;;5.47;2.38;;;;;;;21.03;33.78;100180.03;6235834;23;20072;-93
2023/04/13 11:23:34;;;;;;;12.43;2.78;;;;;;;21.63;33.51;100171.38;6236320;23;20023;-91
2023/04/13 11:26:01;;;;;;;3.72;2.20;;;;;;;22.04;31.06;100174.81;6236972;23;20016;-90
2023/04/13 11:34:33;;;;;;;3.33;1.90;;;;;;;20.67;31.60;100192.91;6248385;22;20022;-95
2023/04/13 11:37:22;;;;;;;4.55;2.28;;;;;;;20.36;31.84;100145.75;6263406;22;20031;-92
2023/04/13 11:40:20;;;;;;;4.00;1.75;;;;;;;20.66;32.03;100159.28;6262360;22;20059;-92
2023/04/13 11:43:15;;;;;;;4.78;2.00;;;;;;;20.50;30.72;100143.59;6249601;22;20011;-91
2023/04/13 11:45:46;;;;;;;4.90;2.33;;;;;;;20.58;31.84;100142.44;6251143;22;20011;-92
2023/04/13 11:48:22;;;;;;;5.97;2.30;;;;;;;20.61;33.13;100166.56;6230578;22;20046;-92
2023/04/13 11:50:55;;;;;;;6.20;2.60;;;;;;;20.55;33.03;100157.38;6252796;22;20039;-93
2023/04/13 11:53:22;;;;;;;4.72;2.28;;;;;;;20.86;32.35;100164.38;6193394;22;20020;-92
2023/04/13 11:55:49;;;;;;;3.88;2.08;;;;;;;20.16;32.98;100159.78;6248559;22;20081;-92
2023/04/13 11:58:41;;;;;;;8.50;2.92;;;;;;;20.45;34.11;100185.28;6278032;22;20100;-93
2023/04/13 12:01:36;;;;;;;4.68;2.50;;;;;;;20.21;33.87;100170.81;6282640;22;20022;-92
2023/04/13 12:04:13;;;;;;;4.13;2.33;;;;;;;19.48;34.87;100135.63;6252465;22;20018;-90
2023/04/13 12:06:53;;;;;;;4.45;2.40;;;;;;;18.92;35.70;100143.94;6204020;22;20045;-93
2023/04/13 12:09:29;;;;;;;4.90;2.70;;;;;;;18.80;36.52;100134.88;6202451;22;20015;-92
2023/04/13 12:12:00;;;;;;;6.18;2.70;;;;;;;18.88;37.76;100169.13;6224475;22;20353;-94
2023/04/13 12:14:37;;;;;;;5.25;2.50;;;;;;;18.22;38.96;100141.53;6249630;22;20016;-94
2023/04/13 12:21:15;;;;;;;7.45;2.45;;;;;;;18.65;39.27;100148.00;6289371;22;20022;-91
2023/04/13 12:24:02;;;;;;;6.93;2.40;;;;;;;17.73;40.29;100144.00;6292182;22;19996;-89
2023/04/13 12:26:40;;;;;;;6.78;2.53;;;;;;;18.53;40.03;100161.53;6206753;22;20057;-90
2023/04/13 12:29:10;;;;;;;4.40;2.33;;;;;;;17.97;40.15;100146.97;6216417;22;20011;-89
2023/04/13 12:31:40;;;;;;;3.95;2.30;;;;;;;17.97;40.63;100163.28;6211199;22;20030;-91
2023/04/13 12:34:27;;;;;;;6.95;2.35;;;;;;;17.89;40.11;100167.13;6234803;22;20073;-91
2023/04/13 12:37:16;;;;;;;4.32;2.30;;;;;;;17.65;41.42;100176.03;6296651;22;20159;-90
2023/04/13 12:43:18;;;;;;;5.85;2.38;;;;;;;17.49;40.96;100132.03;6296808;22;20088;-91
2023/04/13 12:45:46;;;;;;;5.97;2.05;;;;;;;16.96;42.19;100134.22;6224015;22;20018;-92
2023/04/13 12:48:21;;;;;;;5.32;2.53;;;;;;;17.14;42.89;100138.91;6225996;22;19996;-91
2023/04/13 12:50:49;;;;;;;6.72;2.30;;;;;;;17.09;42.79;100131.41;6275030;22;19999;-92
2023/04/13 12:56:42;;;;;;;5.72;2.17;;;;;;;16.37;44.52;100155.03;6301755;22;20006;-91
2023/04/13 12:59:07;;;;;;;5.50;2.33;;;;;;;16.55;45.29;100157.06;6273211;22;19996;-92
2023/04/13 13:01:42;;;;;;;;;;;;;;;16.89;44.95;100164.09;6248380;22;20003;-91
2023/04/13 13:04:08;;;;;;;7.07;2.05;;;;;;;16.53;44.60;100140.16;6300948;22;19980;-92
2023/04/13 13:06:39;;;;;;;3.85;2.03;;;;;;;16.46;45.75;100161.91;6256635;22;20020;-91
2023/04/13 13:09:32;;;;;;;8.05;2.60;;;;;;;16.59;46.17;100172.72;6254965;22;20022;-91
2023/04/13 13:12:08;;;;;;;6.18;2.20;;;;;;;16.47;45.84;100152.69;6255920;22;20393;-92
2023/04/13 13:14:35;;;;;;;3.22;1.92;;;;;;;16.64;45.80;100164.75;6228352;22;20003;-92
2023/04/13 13:17:02;;;;;;;5.13;2.13;;;;;;;16.61;45.22;100151.63;6238595;22;20018;-90
2023/04/13 13:19:29;;;;;;;4.60;2.10;;;;;;;16.57;46.00;100161.22;6206083;22;20003;-91
2023/04/13 13:22:00;;;;;;;5.00;1.98;;;;;;;16.54;46.08;100166.25;6279043;22;20003;-90
2023/04/13 13:24:26;;;;;;;3.90;2.33;;;;;;;16.17;46.51;100136.88;6229939;22;20085;-91
2023/04/13 13:27:00;;;;;;;4.07;2.13;;;;;;;16.27;46.14;100162.75;6226556;22;20011;-91
2023/04/13 13:29:35;;;;;;;7.82;2.45;;;;;;;16.12;46.82;100133.16;6274292;22;20004;-90
2023/04/13 13:32:07;;;;;;;6.30;2.30;;;;;;;16.06;46.77;100137.53;6257099;22;20011;-91
2023/04/13 13:34:40;;;;;;;6.85;1.98;;;;;;;16.13;47.95;100149.22;6194857;23;20023;-89
2023/04/13 13:37:11;;;;;;;2.93;1.80;;;;;;;15.94;46.74;100128.34;6251366;22;20028;-88
2023/04/13 13:39:41;;;;;;;5.25;2.40;;;;;;;16.24;46.91;100137.72;6255183;22;20008;-89
2023/04/13 13:42:09;;;;;;;8.02;1.92;;;;;;;16.14;46.15;100142.72;6231889;23;20008;-88
2023/04/13 13:44:36;;;;;;;5.75;2.08;;;;;;;15.93;45.84;100140.25;6251605;23;20020;-92
2023/04/13 13:47:03;;;;;;;3.42;2.00;;;;;;;15.20;47.84;100109.28;6222909;23;20015;-90
2023/04/13 13:49:32;;;;;;;5.60;2.83;;;;;;;15.63;47.73;100113.50;6222462;23;20008;-90
2023/04/13 13:52:32;;;;;;;11.10;2.42;;;;;;;15.64;47.83;100139.59;6250507;22;20050;-90
2023/04/13 13:55:05;;;;;;;6.95;1.67;;;;;;;15.51;47.06;100128.72;6250419;23;20077;-92
2023/04/13 13:57:35;;;;;;;5.75;1.83;;;;;;;15.36;47.13;100127.03;6246598;22;20083;-90
2023/04/13 14:00:13;;;;;;;7.65;2.10;;;;;;;15.28;48.72;100148.03;6223956;23;20022;-91
2023/04/13 14:02:50;;;;;;;5.97;2.17;;;;;;;15.36;47.65;100129.75;6222427;23;20483;-91
2023/04/13 14:05:16;;;;;;;8.75;2.78;;;;;;;15.68;47.15;100156.25;6217145;23;20410;-90
2023/04/13 14:07:47;;;;;;;5.28;1.90;;;;;;;15.66;46.45;100156.44;6244662;23;20008;-93
2023/04/13 14:10:16;;;;;;;10.82;2.65;;;;;;;15.80;47.29;100151.91;6244719;22;20114;-92
2023/04/13 14:12:43;;;;;;;4.90;2.30;;;;;;;15.54;47.01;100134.53;6244837;23;20027;-91
2023/04/13 14:15:11;;;;;;;6.80;2.10;;;;;;;15.55;46.49;100127.28;6193733;23;20426;-91
2023/04/13 14:17:38;;;;;;;6.13;2.20;;;;;;;15.39;46.95;100139.31;6242197;23;20059;-90
2023/04/13 14:20:13;;;;;;;4.13;2.05;;;;;;;15.31;47.94;100155.75;6244347;23;20003;-92
2023/04/13 14:22:39;;;;;;;4.07;1.80;;;;;;;14.86;48.19;100158.91;6241324;23;20004;-90
2023/04/13 14:25:07;;;;;;;;;;;;;;;14.86;49.02;100167.03;6243095;23;20034;-91
2023/04/13 14:27:39;;;;;;;5.55;1.90;;;;;;;14.62;49.39;100132.38;6247961;23;21578;-93
2023/04/13 14:30:06;;;;;;;5.00;2.33;;;;;;;14.77;49.00;100143.88;6244452;22;20087;-91
2023/04/13 14:32:36;;;;;;;6.45;2.00;;;;;;;14.70;49.01;100134.91;6242666;23;20042;-89
2023/04/13 14:35:01;;;;;;;4.95;2.30;;;;;;;14.84;49.34;100154.75;6249819;23;20024;-89
2023/04/13 14:37:27;;;;;;;10.13;1.98;;;;;;;14.76;48.67;100151.19;6249163;23;20000;-88
2023/04/13 14:39:56;;;;;;;6.53;2.20;;;;;;;14.44;49.72;100147.22;6251765;23;20008;-88
2023/04/13 14:42:23;;;;;;;4.05;1.88;;;;;;;14.51;49.43;100139.13;6224605;23;20011;-89
2023/04/13 14:44:50;;;;;;;5.57;1.90;;;;;;;14.26;49.64;100133.38;6220570;23;20031;-90
2023/04/13 14:47:20;;;;;;;4.72;1.90;;;;;;;14.34;49.89;100122.41;6243508;22;20011;-89
2023/04/13 14:49:54;;;;;;;6.00;2.15;;;;;;;14.36;49.83;100134.69;6219888;23;20012;-91
2023/04/13 14:52:26;;;;;;;6.70;1.83;;;;;;;14.43;48.57;100144.72;6217469;23;20008;-90
2023/04/13 14:58:19;;;;;;;12.70;2.80;;;;;;;14.41;49.85;100157.59;6246657;23;20011;-93
2023/04/13 15:00:53;;;;;;;8.52;2.85;;;;;;;14.20;50.15;100162.03;6243535;23;20012;-89
2023/04/13 15:03:23;;;;;;;5.63;2.10;;;;;;;14.13;50.45;100134.94;6207521;23;20012;-88
2023/04/13 15:05:49;;;;;;;7.40;2.63;;;;;;;14.29;50.86;100149.22;6239021;23;20065;-92
2023/04/13 15:08:28;;;;;;;4.45;2.00;;;;;;;14.21;50.13;100165.56;6250032;23;20064;-91
2023/04/13 15:10:54;;;;;;;8.13;2.20;;;;;;;14.10;50.62;100154.28;6243781;23;20031;-90